sensor_id;sensor_type;location;lat;lon;timestamp;temperature;humidity
10192;DHT22;17580;50.850;4.504;2022-10-03T00:00:00;10.00;99.90
10192;DHT22;17580;50.850;4.504;2022-10-03T00:02:39;9.90;99.90
10192;DHT22;17580;50.850;4.504;2022-10-03T00:05:23;10.00;99.90
10192;DHT22;17580;50.850;4.504;2022-10-03T00:08:06;9.90;99.90
10192;DHT22;17580;50.850;4.504;2022-10-03T00:10:40;9.90;99.90
10192;DHT22;17580;50.850;4.504;2022-10-03T00:13:20;9.90;99.90
10192;DHT22;17580;50.850;4.504;2022-10-03T00:16:00;9.80;99.90
10192;DHT22;17580;50.850;4.504;2022-10-03T00:18:39;9.80;99.90
10192;DHT22;17580;50.850;4.504;2022-10-03T00:21:40;9.80;99.90
10192;DHT22;17580;50.850;4.504;2022-10-03T00:24:27;9.90;99.90
10192;DHT22;17580;50.850;4.504;2022-10-03T00:27:02;9.90;99.90
10192;DHT22;17580;50.850;4.504;2022-10-03T00:29:39;9.90;99.90
10192;DHT22;17580;50.850;4.504;2022-10-03T00:32:22;9.80;99.90
10192;DHT22;17580;50.850;4.504;2022-10-03T00:35:04;9.80;99.90
10192;DHT22;17580;50.850;4.504;2022-10-03T00:37:40;9.70;99.90
10192;DHT22;17580;50.850;4.504;2022-10-03T00:40:43;9.70;99.90
10192;DHT22;17580;50.850;4.504;2022-10-03T00:43:52;9.70;99.90
10192;DHT22;17580;50.850;4.504;2022-10-03T00:46:48;9.60;99.90
10192;DHT22;17580;50.850;4.504;2022-10-03T00:49:41;9.60;99.90
10192;DHT22;17580;50.850;4.504;2022-10-03T00:52:28;9.50;99.90
10192;DHT22;17580;50.850;4.504;2022-10-03T00:55:12;9.60;99.90
10192;DHT22;17580;50.850;4.504;2022-10-03T00:57:59;9.60;99.90
10192;DHT22;17580;50.850;4.504;2022-10-03T01:00:29;9.50;99.90
10192;DHT22;17580;50.850;4.504;2022-10-03T01:03:09;9.50;99.90
10192;DHT22;17580;50.850;4.504;2022-10-03T01:05:46;9.50;99.90
10192;DHT22;17580;50.850;4.504;2022-10-03T01:11:38;9.50;99.90
10192;DHT22;17580;50.850;4.504;2022-10-03T01:14:22;9.50;99.90
10192;DHT22;17580;50.850;4.504;2022-10-03T01:17:06;9.50;99.90
10192;DHT22;17580;50.850;4.504;2022-10-03T01:20:01;9.50;99.90
10192;DHT22;17580;50.850;4.504;2022-10-03T01:22:51;9.40;99.90
10192;DHT22;17580;50.850;4.504;2022-10-03T01:25:36;9.40;99.90
10192;DHT22;17580;50.850;4.504;2022-10-03T01:28:16;9.50;99.90
10192;DHT22;17580;50.850;4.504;2022-10-03T01:31:05;9.40;99.90
10192;DHT22;17580;50.850;4.504;2022-10-03T01:33:38;9.40;99.90
10192;DHT22;17580;50.850;4.504;2022-10-03T01:36:11;9.40;99.90
10192;DHT22;17580;50.850;4.504;2022-10-03T01:38:44;9.40;99.90
10192;DHT22;17580;50.850;4.504;2022-10-03T01:41:20;9.40;99.90
10192;DHT22;17580;50.850;4.504;2022-10-03T01:43:54;9.30;99.90
10192;DHT22;17580;50.850;4.504;2022-10-03T01:46:34;9.30;99.90
10192;DHT22;17580;50.850;4.504;2022-10-03T01:49:09;9.30;99.90
10192;DHT22;17580;50.850;4.504;2022-10-03T01:51:44;9.30;99.90
10192;DHT22;17580;50.850;4.504;2022-10-03T01:54:19;9.30;99.90
10192;DHT22;17580;50.850;4.504;2022-10-03T01:56:55;9.30;99.90
10192;DHT22;17580;50.850;4.504;2022-10-03T01:59:33;9.30;99.90
10192;DHT22;17580;50.850;4.504;2022-10-03T02:02:08;9.20;99.90
10192;DHT22;17580;50.850;4.504;2022-10-03T02:04:46;9.20;99.90
10192;DHT22;17580;50.850;4.504;2022-10-03T02:07:24;9.20;99.90
10192;DHT22;17580;50.850;4.504;2022-10-03T02:10:04;9.20;99.90
10192;DHT22;17580;50.850;4.504;2022-10-03T02:12:36;9.20;99.90
10192;DHT22;17580;50.850;4.504;2022-10-03T02:15:14;9.10;99.90
10192;DHT22;17580;50.850;4.504;2022-10-03T02:17:51;9.10;99.90
10192;DHT22;17580;50.850;4.504;2022-10-03T02:20:24;9.10;99.90
10192;DHT22;17580;50.850;4.504;2022-10-03T02:22:55;9.20;99.90
10192;DHT22;17580;50.850;4.504;2022-10-03T02:25:25;9.20;99.90
10192;DHT22;17580;50.850;4.504;2022-10-03T02:28:12;9.20;99.90
10192;DHT22;17580;50.850;4.504;2022-10-03T02:31:14;9.10;99.90
10192;DHT22;17580;50.850;4.504;2022-10-03T02:37:05;9.10;99.90
10192;DHT22;17580;50.850;4.504;2022-10-03T02:42:56;9.10;99.90
10192;DHT22;17580;50.850;4.504;2022-10-03T02:48:47;9.00;99.90
10192;DHT22;17580;50.850;4.504;2022-10-03T02:51:39;9.00;99.90
10192;DHT22;17580;50.850;4.504;2022-10-03T02:54:27;8.90;99.90
10192;DHT22;17580;50.850;4.504;2022-10-03T03:00:13;8.90;99.90
10192;DHT22;17580;50.850;4.504;2022-10-03T03:02:56;8.90;99.90
10192;DHT22;17580;50.850;4.504;2022-10-03T03:06:05;8.90;99.90
10192;DHT22;17580;50.850;4.504;2022-10-03T03:08:56;8.90;99.90
10192;DHT22;17580;50.850;4.504;2022-10-03T03:11:58;8.80;99.90
10192;DHT22;17580;50.850;4.504;2022-10-03T03:17:38;8.80;99.90
10192;DHT22;17580;50.850;4.504;2022-10-03T03:20:23;8.80;99.90
10192;DHT22;17580;50.850;4.504;2022-10-03T03:23:08;8.80;99.90
10192;DHT22;17580;50.850;4.504;2022-10-03T03:25:53;8.80;99.90
10192;DHT22;17580;50.850;4.504;2022-10-03T03:28:32;8.80;99.90
10192;DHT22;17580;50.850;4.504;2022-10-03T03:31:09;8.70;99.90
10192;DHT22;17580;50.850;4.504;2022-10-03T03:33:46;8.80;99.90
10192;DHT22;17580;50.850;4.504;2022-10-03T03:36:26;8.70;99.90
10192;DHT22;17580;50.850;4.504;2022-10-03T03:39:02;8.70;99.90
10192;DHT22;17580;50.850;4.504;2022-10-03T03:41:47;8.70;99.90
10192;DHT22;17580;50.850;4.504;2022-10-03T03:44:36;8.70;99.90
10192;DHT22;17580;50.850;4.504;2022-10-03T03:47:23;8.80;99.90
10192;DHT22;17580;50.850;4.504;2022-10-03T03:50:23;8.70;99.90
10192;DHT22;17580;50.850;4.504;2022-10-03T03:53:03;8.70;99.90
10192;DHT22;17580;50.850;4.504;2022-10-03T03:55:49;8.60;99.90
10192;DHT22;17580;50.850;4.504;2022-10-03T03:58:31;8.60;99.90
10192;DHT22;17580;50.850;4.504;2022-10-03T04:01:33;8.70;99.90
10192;DHT22;17580;50.850;4.504;2022-10-03T04:04:11;8.70;99.90
10192;DHT22;17580;50.850;4.504;2022-10-03T04:06:49;8.70;99.90
10192;DHT22;17580;50.850;4.504;2022-10-03T04:09:47;8.60;99.90
10192;DHT22;17580;50.850;4.504;2022-10-03T04:12:27;8.60;99.90
10192;DHT22;17580;50.850;4.504;2022-10-03T04:15:16;8.60;99.90
10192;DHT22;17580;50.850;4.504;2022-10-03T04:17:56;8.50;99.90
10192;DHT22;17580;50.850;4.504;2022-10-03T04:21:00;8.50;99.90
10192;DHT22;17580;50.850;4.504;2022-10-03T04:23:46;8.60;99.90
10192;DHT22;17580;50.850;4.504;2022-10-03T04:26:31;8.60;99.90
10192;DHT22;17580;50.850;4.504;2022-10-03T04:29:41;8.50;99.90
10192;DHT22;17580;50.850;4.504;2022-10-03T04:35:15;8.50;99.90
10192;DHT22;17580;50.850;4.504;2022-10-03T04:37:55;8.60;99.90
10192;DHT22;17580;50.850;4.504;2022-10-03T04:40:37;8.50;99.90
10192;DHT22;17580;50.850;4.504;2022-10-03T04:43:10;8.50;99.90
10192;DHT22;17580;50.850;4.504;2022-10-03T04:46:03;8.50;99.90
10192;DHT22;17580;50.850;4.504;2022-10-03T04:48:36;8.50;99.90
10192;DHT22;17580;50.850;4.504;2022-10-03T04:51:11;8.40;99.90
10192;DHT22;17580;50.850;4.504;2022-10-03T04:53:48;8.50;99.90
10192;DHT22;17580;50.850;4.504;2022-10-03T04:56:37;8.40;99.90
10192;DHT22;17580;50.850;4.504;2022-10-03T04:59:22;8.40;99.90
10192;DHT22;17580;50.850;4.504;2022-10-03T05:01:57;8.40;99.90
10192;DHT22;17580;50.850;4.504;2022-10-03T05:04:33;8.40;99.90
10192;DHT22;17580;50.850;4.504;2022-10-03T05:07:16;8.40;99.90
10192;DHT22;17580;50.850;4.504;2022-10-03T05:09:51;8.40;99.90
10192;DHT22;17580;50.850;4.504;2022-10-03T05:12:27;8.50;99.90
10192;DHT22;17580;50.850;4.504;2022-10-03T05:15:06;8.50;99.90
10192;DHT22;17580;50.850;4.504;2022-10-03T05:17:47;8.50;99.90
10192;DHT22;17580;50.850;4.504;2022-10-03T05:20:24;8.50;99.90
10192;DHT22;17580;50.850;4.504;2022-10-03T05:23:00;8.40;99.90
10192;DHT22;17580;50.850;4.504;2022-10-03T05:25:45;8.50;99.90
10192;DHT22;17580;50.850;4.504;2022-10-03T05:28:23;8.40;99.90
10192;DHT22;17580;50.850;4.504;2022-10-03T05:30:55;8.40;99.90
10192;DHT22;17580;50.850;4.504;2022-10-03T05:33:39;8.40;99.90
10192;DHT22;17580;50.850;4.504;2022-10-03T05:36:15;8.30;99.90
10192;DHT22;17580;50.850;4.504;2022-10-03T05:42:10;8.20;99.90
10192;DHT22;17580;50.850;4.504;2022-10-03T05:44:41;8.20;99.90
10192;DHT22;17580;50.850;4.504;2022-10-03T05:47:11;8.30;99.90
10192;DHT22;17580;50.850;4.504;2022-10-03T05:50:07;8.30;99.90
10192;DHT22;17580;50.850;4.504;2022-10-03T05:52:51;8.30;99.90
10192;DHT22;17580;50.850;4.504;2022-10-03T05:55:45;8.30;99.90
10192;DHT22;17580;50.850;4.504;2022-10-03T06:01:45;8.40;99.90
10192;DHT22;17580;50.850;4.504;2022-10-03T06:04:48;8.40;99.90
10192;DHT22;17580;50.850;4.504;2022-10-03T06:07:25;8.40;99.90
10192;DHT22;17580;50.850;4.504;2022-10-03T06:13:12;8.60;99.90
10192;DHT22;17580;50.850;4.504;2022-10-03T06:15:56;8.50;99.90
10192;DHT22;17580;50.850;4.504;2022-10-03T06:31:23;8.80;99.90
10192;DHT22;17580;50.850;4.504;2022-10-03T06:34:17;8.80;99.90
10192;DHT22;17580;50.850;4.504;2022-10-03T06:37:11;8.90;99.90
10192;DHT22;17580;50.850;4.504;2022-10-03T06:40:19;8.90;99.90
10192;DHT22;17580;50.850;4.504;2022-10-03T06:43:07;8.90;99.90
10192;DHT22;17580;50.850;4.504;2022-10-03T06:51:53;9.20;99.90
10192;DHT22;17580;50.850;4.504;2022-10-03T06:58:00;9.30;99.90
10192;DHT22;17580;50.850;4.504;2022-10-03T07:00:44;9.40;99.90
10192;DHT22;17580;50.850;4.504;2022-10-03T07:03:35;9.40;99.90
10192;DHT22;17580;50.850;4.504;2022-10-03T07:06:29;9.50;99.90
10192;DHT22;17580;50.850;4.504;2022-10-03T07:09:37;9.60;99.90
10192;DHT22;17580;50.850;4.504;2022-10-03T07:22:00;10.30;99.90
10192;DHT22;17580;50.850;4.504;2022-10-03T07:28:03;10.50;99.90
10192;DHT22;17580;50.850;4.504;2022-10-03T07:30:50;10.60;99.90
10192;DHT22;17580;50.850;4.504;2022-10-03T07:36:31;10.80;99.90
10192;DHT22;17580;50.850;4.504;2022-10-03T07:42:26;11.10;99.90
10192;DHT22;17580;50.850;4.504;2022-10-03T07:45:26;11.20;99.90
10192;DHT22;17580;50.850;4.504;2022-10-03T07:50:56;11.40;99.90
10192;DHT22;17580;50.850;4.504;2022-10-03T07:57:02;11.70;99.90
10192;DHT22;17580;50.850;4.504;2022-10-03T08:00:11;11.80;99.90
10192;DHT22;17580;50.850;4.504;2022-10-03T08:06:00;12.00;99.90
10192;DHT22;17580;50.850;4.504;2022-10-03T08:08:54;12.20;99.90
10192;DHT22;17580;50.850;4.504;2022-10-03T08:14:31;12.40;99.90
10192;DHT22;17580;50.850;4.504;2022-10-03T08:23:42;13.80;99.90
10192;DHT22;17580;50.850;4.504;2022-10-03T08:26:18;15.50;99.90
10192;DHT22;17580;50.850;4.504;2022-10-03T08:29:12;16.80;99.90
10192;DHT22;17580;50.850;4.504;2022-10-03T08:32:15;17.60;99.90
10192;DHT22;17580;50.850;4.504;2022-10-03T08:38:33;19.30;93.20
10192;DHT22;17580;50.850;4.504;2022-10-03T08:41:41;20.60;79.70
10192;DHT22;17580;50.850;4.504;2022-10-03T08:44:56;21.40;69.90
10192;DHT22;17580;50.850;4.504;2022-10-03T08:53:59;22.80;57.80
10192;DHT22;17580;50.850;4.504;2022-10-03T08:56:44;23.10;55.20
10192;DHT22;17580;50.850;4.504;2022-10-03T09:02:44;24.20;50.50
10192;DHT22;17580;50.850;4.504;2022-10-03T09:05:58;24.00;48.20
10192;DHT22;17580;50.850;4.504;2022-10-03T09:09:00;23.90;48.60
10192;DHT22;17580;50.850;4.504;2022-10-03T09:11:54;24.00;46.20
10192;DHT22;17580;50.850;4.504;2022-10-03T09:15:05;24.10;46.60
10192;DHT22;17580;50.850;4.504;2022-10-03T09:21:00;25.80;43.70
10192;DHT22;17580;50.850;4.504;2022-10-03T09:23:53;25.70;40.70
10192;DHT22;17580;50.850;4.504;2022-10-03T09:26:59;26.30;39.00
10192;DHT22;17580;50.850;4.504;2022-10-03T09:35:44;26.70;38.00
10192;DHT22;17580;50.850;4.504;2022-10-03T09:47:57;25.40;37.50
10192;DHT22;17580;50.850;4.504;2022-10-03T09:50:57;25.00;37.70
10192;DHT22;17580;50.850;4.504;2022-10-03T09:59:59;25.00;34.10
10192;DHT22;17580;50.850;4.504;2022-10-03T10:03:09;25.10;34.70
10192;DHT22;17580;50.850;4.504;2022-10-03T10:09:03;25.50;35.70
10192;DHT22;17580;50.850;4.504;2022-10-03T10:11:50;26.10;33.80
10192;DHT22;17580;50.850;4.504;2022-10-03T10:14:47;25.70;33.20
10192;DHT22;17580;50.850;4.504;2022-10-03T10:20:49;23.90;35.60
10192;DHT22;17580;50.850;4.504;2022-10-03T10:23:32;22.40;37.30
10192;DHT22;17580;50.850;4.504;2022-10-03T10:29:32;20.90;46.30
10192;DHT22;17580;50.850;4.504;2022-10-03T10:35:37;23.30;45.60
10192;DHT22;17580;50.850;4.504;2022-10-03T10:38:38;24.20;39.70
10192;DHT22;17580;50.850;4.504;2022-10-03T10:48:05;26.40;31.50
10192;DHT22;17580;50.850;4.504;2022-10-03T10:51:09;26.70;32.10
10192;DHT22;17580;50.850;4.504;2022-10-03T10:57:09;26.50;27.80
10192;DHT22;17580;50.850;4.504;2022-10-03T11:00:15;25.40;30.10
10192;DHT22;17580;50.850;4.504;2022-10-03T11:06:31;23.00;37.00
10192;DHT22;17580;50.850;4.504;2022-10-03T11:09:45;22.20;37.00
10192;DHT22;17580;50.850;4.504;2022-10-03T11:15:55;21.50;40.60
10192;DHT22;17580;50.850;4.504;2022-10-03T11:25:13;21.10;38.80
10192;DHT22;17580;50.850;4.504;2022-10-03T11:31:39;20.70;44.40
10192;DHT22;17580;50.850;4.504;2022-10-03T11:34:36;20.10;47.90
10192;DHT22;17580;50.850;4.504;2022-10-03T11:37:18;20.00;49.00
10192;DHT22;17580;50.850;4.504;2022-10-03T11:39:56;19.90;48.50
10192;DHT22;17580;50.850;4.504;2022-10-03T11:42:37;19.80;48.10
10192;DHT22;17580;50.850;4.504;2022-10-03T11:45:19;19.70;56.50
10192;DHT22;17580;50.850;4.504;2022-10-03T11:48:03;19.40;55.90
10192;DHT22;17580;50.850;4.504;2022-10-03T11:50:47;19.20;56.10
10192;DHT22;17580;50.850;4.504;2022-10-03T11:53:40;19.20;51.40
10192;DHT22;17580;50.850;4.504;2022-10-03T11:56:33;19.20;56.00
10192;DHT22;17580;50.850;4.504;2022-10-03T12:02:22;19.20;54.20
10192;DHT22;17580;50.850;4.504;2022-10-03T12:04:57;19.30;55.20
10192;DHT22;17580;50.850;4.504;2022-10-03T12:07:43;19.30;56.10
10192;DHT22;17580;50.850;4.504;2022-10-03T12:10:45;19.40;54.30
10192;DHT22;17580;50.850;4.504;2022-10-03T12:13:17;19.30;55.80
10192;DHT22;17580;50.850;4.504;2022-10-03T12:15:47;19.30;53.50
10192;DHT22;17580;50.850;4.504;2022-10-03T12:18:21;19.90;51.70
10192;DHT22;17580;50.850;4.504;2022-10-03T12:21:13;19.80;51.50
10192;DHT22;17580;50.850;4.504;2022-10-03T12:23:58;19.90;53.10
10192;DHT22;17580;50.850;4.504;2022-10-03T12:26:46;20.00;50.50
10192;DHT22;17580;50.850;4.504;2022-10-03T12:29:15;19.90;52.60
10192;DHT22;17580;50.850;4.504;2022-10-03T12:31:53;19.90;56.10
10192;DHT22;17580;50.850;4.504;2022-10-03T12:34:34;19.80;55.80
10192;DHT22;17580;50.850;4.504;2022-10-03T12:37:23;19.90;56.30
10192;DHT22;17580;50.850;4.504;2022-10-03T12:40:01;19.90;51.40
10192;DHT22;17580;50.850;4.504;2022-10-03T12:42:33;19.80;48.50
10192;DHT22;17580;50.850;4.504;2022-10-03T12:45:03;19.90;52.30
10192;DHT22;17580;50.850;4.504;2022-10-03T12:47:43;20.70;50.30
10192;DHT22;17580;50.850;4.504;2022-10-03T12:50:43;21.00;48.90
10192;DHT22;17580;50.850;4.504;2022-10-03T12:53:29;22.30;46.60
10192;DHT22;17580;50.850;4.504;2022-10-03T12:56:04;23.40;43.70
10192;DHT22;17580;50.850;4.504;2022-10-03T12:58:42;23.70;39.90
10192;DHT22;17580;50.850;4.504;2022-10-03T13:01:20;22.30;38.80
10192;DHT22;17580;50.850;4.504;2022-10-03T13:03:53;21.70;42.40
10192;DHT22;17580;50.850;4.504;2022-10-03T13:06:30;21.20;45.20
10192;DHT22;17580;50.850;4.504;2022-10-03T13:09:12;21.70;45.50
10192;DHT22;17580;50.850;4.504;2022-10-03T13:11:56;22.70;40.50
10192;DHT22;17580;50.850;4.504;2022-10-03T13:17:25;22.70;37.60
10192;DHT22;17580;50.850;4.504;2022-10-03T13:19:57;23.00;39.70
10192;DHT22;17580;50.850;4.504;2022-10-03T13:22:38;23.10;35.90
10192;DHT22;17580;50.850;4.504;2022-10-03T13:25:16;22.30;39.60
10192;DHT22;17580;50.850;4.504;2022-10-03T13:27:47;21.70;41.50
10192;DHT22;17580;50.850;4.504;2022-10-03T13:30:19;21.10;42.10
10192;DHT22;17580;50.850;4.504;2022-10-03T13:32:51;20.70;43.10
10192;DHT22;17580;50.850;4.504;2022-10-03T13:35:23;20.40;43.00
10192;DHT22;17580;50.850;4.504;2022-10-03T13:41:14;19.90;43.10
10192;DHT22;17580;50.850;4.504;2022-10-03T13:43:47;19.80;45.90
10192;DHT22;17580;50.850;4.504;2022-10-03T13:46:17;19.70;46.30
10192;DHT22;17580;50.850;4.504;2022-10-03T13:48:53;19.60;49.20
10192;DHT22;17580;50.850;4.504;2022-10-03T13:51:30;19.50;49.00
10192;DHT22;17580;50.850;4.504;2022-10-03T13:54:03;19.50;49.00
10192;DHT22;17580;50.850;4.504;2022-10-03T13:56:51;19.50;51.10
10192;DHT22;17580;50.850;4.504;2022-10-03T13:59:43;19.40;50.00
10192;DHT22;17580;50.850;4.504;2022-10-03T14:02:36;19.30;56.40
10192;DHT22;17580;50.850;4.504;2022-10-03T14:08:08;19.20;53.20
10192;DHT22;17580;50.850;4.504;2022-10-03T14:10:58;19.10;53.40
10192;DHT22;17580;50.850;4.504;2022-10-03T14:13:32;19.00;53.40
10192;DHT22;17580;50.850;4.504;2022-10-03T14:16:09;18.90;55.90
10192;DHT22;17580;50.850;4.504;2022-10-03T14:18:46;18.80;55.20
10192;DHT22;17580;50.850;4.504;2022-10-03T14:21:53;18.80;57.20
10192;DHT22;17580;50.850;4.504;2022-10-03T14:24:47;18.80;58.10
10192;DHT22;17580;50.850;4.504;2022-10-03T14:27:34;18.70;55.90
10192;DHT22;17580;50.850;4.504;2022-10-03T14:30:04;18.60;57.60
10192;DHT22;17580;50.850;4.504;2022-10-03T14:32:38;18.50;63.50
10192;DHT22;17580;50.850;4.504;2022-10-03T14:35:20;18.50;60.40
10192;DHT22;17580;50.850;4.504;2022-10-03T14:37:56;18.50;57.90
10192;DHT22;17580;50.850;4.504;2022-10-03T14:40:33;18.40;60.70
10192;DHT22;17580;50.850;4.504;2022-10-03T14:43:19;18.50;59.60
10192;DHT22;17580;50.850;4.504;2022-10-03T14:45:51;18.50;60.00
10192;DHT22;17580;50.850;4.504;2022-10-03T14:48:22;18.30;59.90
10192;DHT22;17580;50.850;4.504;2022-10-03T14:50:53;18.30;60.20
10192;DHT22;17580;50.850;4.504;2022-10-03T14:53:25;18.10;60.30
10192;DHT22;17580;50.850;4.504;2022-10-03T14:55:57;18.10;63.30
10192;DHT22;17580;50.850;4.504;2022-10-03T14:58:29;18.00;60.60
10192;DHT22;17580;50.850;4.504;2022-10-03T15:01:03;17.90;61.90
10192;DHT22;17580;50.850;4.504;2022-10-03T15:03:34;17.80;64.30
10192;DHT22;17580;50.850;4.504;2022-10-03T15:09:04;17.90;64.20
10192;DHT22;17580;50.850;4.504;2022-10-03T15:11:36;17.80;64.20
10192;DHT22;17580;50.850;4.504;2022-10-03T15:14:12;17.80;66.70
10192;DHT22;17580;50.850;4.504;2022-10-03T15:16:45;17.90;66.00
10192;DHT22;17580;50.850;4.504;2022-10-03T15:19:16;18.00;66.50
10192;DHT22;17580;50.850;4.504;2022-10-03T15:21:45;18.00;66.10
10192;DHT22;17580;50.850;4.504;2022-10-03T15:24:19;18.10;66.10
10192;DHT22;17580;50.850;4.504;2022-10-03T15:26:49;18.00;66.60
10192;DHT22;17580;50.850;4.504;2022-10-03T15:29:19;17.80;62.20
10192;DHT22;17580;50.850;4.504;2022-10-03T15:31:49;17.60;63.40
10192;DHT22;17580;50.850;4.504;2022-10-03T15:34:20;17.40;67.30
10192;DHT22;17580;50.850;4.504;2022-10-03T15:36:49;17.40;69.50
10192;DHT22;17580;50.850;4.504;2022-10-03T15:39:23;17.40;65.40
10192;DHT22;17580;50.850;4.504;2022-10-03T15:41:54;17.40;65.90
10192;DHT22;17580;50.850;4.504;2022-10-03T15:44:26;17.40;66.60
10192;DHT22;17580;50.850;4.504;2022-10-03T15:46:59;17.30;68.20
10192;DHT22;17580;50.850;4.504;2022-10-03T15:49:32;17.20;69.50
10192;DHT22;17580;50.850;4.504;2022-10-03T15:52:09;17.20;71.30
10192;DHT22;17580;50.850;4.504;2022-10-03T15:54:44;17.10;67.20
10192;DHT22;17580;50.850;4.504;2022-10-03T15:57:17;17.10;71.30
10192;DHT22;17580;50.850;4.504;2022-10-03T15:59:51;17.10;71.20
10192;DHT22;17580;50.850;4.504;2022-10-03T16:02:22;17.10;72.90
10192;DHT22;17580;50.850;4.504;2022-10-03T16:04:53;17.00;73.80
10192;DHT22;17580;50.850;4.504;2022-10-03T16:07:28;16.90;76.50
10192;DHT22;17580;50.850;4.504;2022-10-03T16:10:05;16.80;78.80
10192;DHT22;17580;50.850;4.504;2022-10-03T16:12:53;16.70;75.30
10192;DHT22;17580;50.850;4.504;2022-10-03T16:15:27;16.50;79.80
10192;DHT22;17580;50.850;4.504;2022-10-03T16:18:00;16.50;90.70
10192;DHT22;17580;50.850;4.504;2022-10-03T16:20:34;16.40;90.10
10192;DHT22;17580;50.850;4.504;2022-10-03T16:23:10;16.40;92.30
10192;DHT22;17580;50.850;4.504;2022-10-03T16:25:43;16.30;97.20
10192;DHT22;17580;50.850;4.504;2022-10-03T16:28:15;16.20;95.70
10192;DHT22;17580;50.850;4.504;2022-10-03T16:30:51;16.10;99.90
10192;DHT22;17580;50.850;4.504;2022-10-03T16:33:22;16.00;99.90
10192;DHT22;17580;50.850;4.504;2022-10-03T16:35:53;16.00;99.90
10192;DHT22;17580;50.850;4.504;2022-10-03T16:38:22;15.80;99.90
10192;DHT22;17580;50.850;4.504;2022-10-03T16:40:55;15.80;99.90
10192;DHT22;17580;50.850;4.504;2022-10-03T16:43:23;15.70;99.90
10192;DHT22;17580;50.850;4.504;2022-10-03T16:45:53;15.70;99.90
10192;DHT22;17580;50.850;4.504;2022-10-03T16:48:24;15.60;99.90
10192;DHT22;17580;50.850;4.504;2022-10-03T16:51:17;15.60;99.90
10192;DHT22;17580;50.850;4.504;2022-10-03T16:53:47;15.50;99.90
10192;DHT22;17580;50.850;4.504;2022-10-03T16:56:16;15.40;99.90
10192;DHT22;17580;50.850;4.504;2022-10-03T16:58:49;15.40;99.90
10192;DHT22;17580;50.850;4.504;2022-10-03T17:01:29;15.30;99.90
10192;DHT22;17580;50.850;4.504;2022-10-03T17:04:12;15.20;99.90
10192;DHT22;17580;50.850;4.504;2022-10-03T17:06:44;15.10;99.90
10192;DHT22;17580;50.850;4.504;2022-10-03T17:09:19;15.00;99.90
10192;DHT22;17580;50.850;4.504;2022-10-03T17:11:52;14.90;99.90
10192;DHT22;17580;50.850;4.504;2022-10-03T17:14:20;14.80;99.90
10192;DHT22;17580;50.850;4.504;2022-10-03T17:16:52;14.70;99.90
10192;DHT22;17580;50.850;4.504;2022-10-03T17:19:30;14.70;99.90
10192;DHT22;17580;50.850;4.504;2022-10-03T17:22:04;14.60;99.90
10192;DHT22;17580;50.850;4.504;2022-10-03T17:24:40;14.50;99.90
10192;DHT22;17580;50.850;4.504;2022-10-03T17:27:14;14.40;99.90
10192;DHT22;17580;50.850;4.504;2022-10-03T17:29:47;14.40;99.90
10192;DHT22;17580;50.850;4.504;2022-10-03T17:32:22;14.30;99.90
10192;DHT22;17580;50.850;4.504;2022-10-03T17:34:54;14.30;99.90
10192;DHT22;17580;50.850;4.504;2022-10-03T17:37:49;14.20;99.90
10192;DHT22;17580;50.850;4.504;2022-10-03T17:40:21;14.20;99.90
10192;DHT22;17580;50.850;4.504;2022-10-03T17:42:54;14.10;99.90
10192;DHT22;17580;50.850;4.504;2022-10-03T17:45:31;14.10;99.90
10192;DHT22;17580;50.850;4.504;2022-10-03T17:48:09;14.00;99.90
10192;DHT22;17580;50.850;4.504;2022-10-03T17:50:50;14.00;99.90
10192;DHT22;17580;50.850;4.504;2022-10-03T17:53:20;13.90;99.90
10192;DHT22;17580;50.850;4.504;2022-10-03T17:55:54;13.90;99.90
10192;DHT22;17580;50.850;4.504;2022-10-03T17:58:23;13.90;99.90
10192;DHT22;17580;50.850;4.504;2022-10-03T18:01:01;13.80;99.90
10192;DHT22;17580;50.850;4.504;2022-10-03T18:03:35;13.70;99.90
10192;DHT22;17580;50.850;4.504;2022-10-03T18:09:09;13.60;99.90
10192;DHT22;17580;50.850;4.504;2022-10-03T18:11:45;13.50;99.90
10192;DHT22;17580;50.850;4.504;2022-10-03T18:14:21;13.40;99.90
10192;DHT22;17580;50.850;4.504;2022-10-03T18:16:54;13.40;99.90
10192;DHT22;17580;50.850;4.504;2022-10-03T18:19:37;13.40;99.90
10192;DHT22;17580;50.850;4.504;2022-10-03T18:22:14;13.30;99.90
10192;DHT22;17580;50.850;4.504;2022-10-03T18:24:51;13.20;99.90
10192;DHT22;17580;50.850;4.504;2022-10-03T18:27:50;13.20;99.90
10192;DHT22;17580;50.850;4.504;2022-10-03T18:30:24;13.20;99.90
10192;DHT22;17580;50.850;4.504;2022-10-03T18:32:53;13.20;99.90
10192;DHT22;17580;50.850;4.504;2022-10-03T18:35:29;13.20;99.90
10192;DHT22;17580;50.850;4.504;2022-10-03T18:38:08;13.10;99.90
10192;DHT22;17580;50.850;4.504;2022-10-03T18:40:41;13.10;99.90
10192;DHT22;17580;50.850;4.504;2022-10-03T18:43:27;13.00;99.90
10192;DHT22;17580;50.850;4.504;2022-10-03T18:45:59;13.10;99.90
10192;DHT22;17580;50.850;4.504;2022-10-03T18:48:33;13.10;99.90
10192;DHT22;17580;50.850;4.504;2022-10-03T18:51:10;12.90;99.90
10192;DHT22;17580;50.850;4.504;2022-10-03T18:53:43;12.90;99.90
10192;DHT22;17580;50.850;4.504;2022-10-03T18:56:15;12.90;99.90
10192;DHT22;17580;50.850;4.504;2022-10-03T18:58:44;12.90;99.90
10192;DHT22;17580;50.850;4.504;2022-10-03T19:01:18;12.90;99.90
10192;DHT22;17580;50.850;4.504;2022-10-03T19:03:53;12.80;99.90
10192;DHT22;17580;50.850;4.504;2022-10-03T19:06:26;12.80;99.90
10192;DHT22;17580;50.850;4.504;2022-10-03T19:08:57;12.80;99.90
10192;DHT22;17580;50.850;4.504;2022-10-03T19:11:28;12.70;99.90
10192;DHT22;17580;50.850;4.504;2022-10-03T19:14:02;12.70;99.90
10192;DHT22;17580;50.850;4.504;2022-10-03T19:16:42;12.80;99.90
10192;DHT22;17580;50.850;4.504;2022-10-03T19:19:19;12.70;99.90
10192;DHT22;17580;50.850;4.504;2022-10-03T19:21:51;12.70;99.90
10192;DHT22;17580;50.850;4.504;2022-10-03T19:24:20;12.60;99.90
10192;DHT22;17580;50.850;4.504;2022-10-03T19:26:51;12.50;99.90
10192;DHT22;17580;50.850;4.504;2022-10-03T19:29:22;12.50;99.90
10192;DHT22;17580;50.850;4.504;2022-10-03T19:31:58;12.50;99.90
10192;DHT22;17580;50.850;4.504;2022-10-03T19:34:31;12.50;99.90
10192;DHT22;17580;50.850;4.504;2022-10-03T19:37:04;12.40;99.90
10192;DHT22;17580;50.850;4.504;2022-10-03T19:39:33;12.50;99.90
10192;DHT22;17580;50.850;4.504;2022-10-03T19:42:21;12.50;99.90
10192;DHT22;17580;50.850;4.504;2022-10-03T19:44:50;12.40;99.90
10192;DHT22;17580;50.850;4.504;2022-10-03T19:47:24;12.30;99.90
10192;DHT22;17580;50.850;4.504;2022-10-03T19:49:59;12.10;99.90
10192;DHT22;17580;50.850;4.504;2022-10-03T19:52:31;12.10;99.90
10192;DHT22;17580;50.850;4.504;2022-10-03T19:55:01;12.10;99.90
10192;DHT22;17580;50.850;4.504;2022-10-03T19:57:40;12.10;99.90
10192;DHT22;17580;50.850;4.504;2022-10-03T20:00:21;12.00;99.90
10192;DHT22;17580;50.850;4.504;2022-10-03T20:02:54;12.00;99.90
10192;DHT22;17580;50.850;4.504;2022-10-03T20:05:24;12.00;99.90
10192;DHT22;17580;50.850;4.504;2022-10-03T20:07:59;12.00;99.90
10192;DHT22;17580;50.850;4.504;2022-10-03T20:10:46;12.10;99.90